Time;durP1;ratioP1;P1;durP2;ratioP2;P2;SDS_P1;SDS_P2;PMS_P1;PMS_P2;Temp;Humidity;BMP_temperature;BMP_pressure;BME280_temperature;BME280_humidity;BME280_pressure;Samples;Min_cycle;Max_cycle;Signal;HPM_P1;HPM_P2
2024/02/01 00:01:52;;;;;;;7.70;4.75;;;5.00;60.20;;;;;;5081124;28;20297;-72
2024/02/01 00:04:20;;;;;;;7.88;4.70;;;5.00;60.30;;;;;;5074002;28;20262;-72
2024/02/01 00:06:50;;;;;;;6.97;4.20;;;4.90;60.20;;;;;;5074044;28;20276;-72
2024/02/01 00:09:17;;;;;;;11.13;4.65;;;4.90;60.20;;;;;;5072495;28;20623;-72
2024/02/01 00:11:44;;;;;;;6.68;4.70;;;4.90;59.90;;;;;;5074183;28;20277;-72
2024/02/01 00:14:11;;;;;;;6.40;4.05;;;4.90;60.00;;;;;;5074091;28;20272;-72
2024/02/01 00:16:38;;;;;;;6.15;4.35;;;4.80;60.30;;;;;;5074061;28;20226;-72
2024/02/01 00:19:05;;;;;;;6.03;4.60;;;4.80;60.70;;;;;;5074261;28;20550;-71
2024/02/01 00:21:33;;;;;;;8.30;5.43;;;4.90;60.30;;;;;;5073859;28;20239;-72
2024/02/01 00:24:00;;;;;;;8.70;4.85;;;4.80;60.10;;;;;;5074196;28;20279;-72
2024/02/01 00:26:27;;;;;;;6.47;4.45;;;4.80;60.60;;;;;;5074233;28;20273;-72
2024/02/01 00:28:54;;;;;;;9.77;5.00;;;4.70;61.60;;;;;;5074343;28;20268;-72
2024/02/01 00:31:21;;;;;;;7.50;4.63;;;4.70;62.30;;;;;;5074077;28;20226;-72
2024/02/01 00:33:48;;;;;;;10.40;4.70;;;4.70;62.70;;;;;;5074067;28;20570;-71
2024/02/01 00:36:15;;;;;;;10.07;5.88;;;4.70;63.00;;;;;;5074021;28;20281;-72
2024/02/01 00:38:43;;;;;;;8.57;5.07;;;4.70;62.80;;;;;;5074269;28;20639;-72
2024/02/01 00:41:10;;;;;;;7.97;5.35;;;4.80;62.40;;;;;;5073637;28;20276;-72
2024/02/01 00:43:37;;;;;;;10.48;6.13;;;4.80;61.40;;;;;;5073943;28;20297;-72
2024/02/01 00:46:04;;;;;;;9.38;4.72;;;4.80;61.00;;;;;;5073841;28;20575;-72
2024/02/01 00:48:32;;;;;;;7.80;4.72;;;4.80;60.50;;;;;;5073838;28;20213;-72
2024/02/01 00:50:59;;;;;;;7.60;4.50;;;4.80;59.90;;;;;;5073719;28;20213;-72
2024/02/01 00:53:27;;;;;;;6.93;4.28;;;4.70;59.70;;;;;;5073678;28;20229;-72
2024/02/01 00:55:56;;;;;;;5.88;3.65;;;4.80;59.90;;;;;;5073762;28;20580;-72
2024/02/01 00:58:23;;;;;;;5.93;4.68;;;4.70;59.50;;;;;;5073373;28;20281;-72
2024/02/01 01:00:50;;;;;;;6.43;4.13;;;4.70;59.60;;;;;;5073249;28;20272;-72
2024/02/01 01:03:17;;;;;;;6.38;4.00;;;4.60;59.50;;;;;;5073479;28;20293;-72
2024/02/01 01:05:44;;;;;;;7.43;3.97;;;4.50;59.90;;;;;;5073228;28;20699;-72
2024/02/01 01:08:13;;;;;;;6.20;3.70;;;4.50;60.40;;;;;;5073779;28;20218;-72
2024/02/01 01:10:40;;;;;;;7.60;3.72;;;4.50;60.80;;;;;;5073502;28;20236;-72
2024/02/01 01:13:09;;;;;;;7.32;3.60;;;4.50;61.30;;;;;;5073468;28;20236;-72
2024/02/01 01:15:35;;;;;;;8.88;4.50;;;4.60;61.50;;;;;;5073506;28;20178;-72
2024/02/01 01:18:03;;;;;;;7.63;3.22;;;4.70;61.00;;;;;;5072852;28;20686;-72
2024/02/01 01:20:29;;;;;;;6.18;4.20;;;4.60;60.10;;;;;;5073057;28;20225;-72
2024/02/01 01:22:56;;;;;;;9.32;3.95;;;4.60;59.90;;;;;;5073190;28;20241;-72
2024/02/01 01:25:23;;;;;;;8.02;4.80;;;4.60;59.90;;;;;;5073335;28;20269;-72
2024/02/01 01:27:51;;;;;;;5.68;3.38;;;4.60;59.80;;;;;;5073370;28;20573;-72
2024/02/01 01:30:19;;;;;;;7.00;3.70;;;4.50;59.90;;;;;;5073177;28;20214;-72
2024/02/01 01:32:46;;;;;;;8.60;4.10;;;4.60;59.90;;;;;;5072947;28;20632;-72
2024/02/01 01:35:13;;;;;;;8.30;4.97;;;4.50;59.70;;;;;;5073232;28;20273;-71
2024/02/01 01:37:40;;;;;;;6.55;4.00;;;4.50;59.90;;;;;;5073426;28;20621;-72
2024/02/01 01:40:08;;;;;;;6.43;4.20;;;4.40;60.10;;;;;;5073124;28;20186;-72
2024/02/01 01:42:35;;;;;;;8.88;3.78;;;4.40;60.10;;;;;;5073293;28;20297;-72
2024/02/01 01:45:03;;;;;;;6.30;3.78;;;4.40;60.10;;;;;;5073205;28;20218;-72
2024/02/01 01:47:32;;;;;;;6.13;3.75;;;4.40;60.00;;;;;;5073395;28;20281;-72
2024/02/01 01:49:59;;;;;;;10.30;4.50;;;4.40;60.00;;;;;;5072834;28;20233;-71
2024/02/01 01:52:27;;;;;;;6.63;4.05;;;4.40;60.10;;;;;;5073033;28;20289;-72
2024/02/01 01:54:58;;;;;;;5.45;3.63;;;4.30;59.90;;;;;;5073088;28;20240;-72
2024/02/01 01:57:26;;;;;;;9.38;4.82;;;4.30;58.80;;;;;;5073125;28;20181;-72
2024/02/01 01:59:54;;;;;;;9.13;4.00;;;4.20;58.70;;;;;;5072877;28;20190;-71
2024/02/01 02:02:21;;;;;;;5.35;3.80;;;4.20;59.30;;;;;;5072876;28;20304;-72
2024/02/01 02:04:51;;;;;;;5.65;3.67;;;4.20;59.70;;;;;;5075212;28;20273;-72
2024/02/01 02:07:18;;;;;;;8.20;4.45;;;4.20;59.80;;;;;;5076548;28;20177;-72
2024/02/01 02:09:45;;;;;;;6.82;4.47;;;4.20;59.40;;;;;;5076529;28;20269;-72
2024/02/01 02:12:12;;;;;;;7.93;5.05;;;4.20;59.90;;;;;;5076747;28;20584;-71
2024/02/01 02:14:39;;;;;;;7.80;4.70;;;4.20;60.20;;;;;;5076376;28;20273;-72
2024/02/01 02:17:06;;;;;;;7.32;4.00;;;4.20;61.30;;;;;;5076656;28;20290;-72
2024/02/01 02:19:33;;;;;;;6.13;4.88;;;4.20;62.40;;;;;;5076785;28;20678;-72
2024/02/01 02:22:01;;;;;;;5.03;3.65;;;4.20;62.10;;;;;;5076276;28;20281;-72
2024/02/01 02:24:28;;;;;;;8.25;4.40;;;4.30;62.80;;;;;;5076400;28;20301;-72
2024/02/01 02:26:55;;;;;;;6.57;3.85;;;4.40;62.60;;;;;;5076474;28;20228;-72
2024/02/01 02:29:22;;;;;;;8.52;4.30;;;4.40;62.80;;;;;;5076107;28;20281;-72
2024/02/01 02:31:49;;;;;;;6.32;3.80;;;4.50;63.00;;;;;;5076496;28;20217;-72
2024/02/01 02:34:16;;;;;;;5.75;4.15;;;4.60;63.10;;;;;;5076050;28;20232;-72
2024/02/01 02:36:43;;;;;;;8.60;4.03;;;4.70;62.80;;;;;;5076560;28;20280;-72
2024/02/01 02:39:13;;;;;;;7.97;4.70;;;4.70;63.10;;;;;;5076236;28;20182;-72
2024/02/01 02:41:40;;;;;;;6.35;4.18;;;4.80;63.50;;;;;;5075968;28;20210;-72
2024/02/01 02:44:10;;;;;;;15.05;5.53;;;4.90;63.70;;;;;;5076061;28;20296;-72
2024/02/01 02:46:37;;;;;;;9.15;5.13;;;5.00;64.60;;;;;;5076333;28;20186;-71
2024/02/01 02:49:04;;;;;;;10.07;6.68;;;5.10;64.80;;;;;;5076168;28;20273;-72
2024/02/01 02:51:31;;;;;;;8.70;6.45;;;5.20;66.40;;;;;;5076037;28;20190;-72
2024/02/01 02:53:58;;;;;;;11.93;5.18;;;5.30;66.80;;;;;;5075978;28;20276;-72
2024/02/01 02:56:26;;;;;;;9.10;5.43;;;5.40;66.60;;;;;;5075969;28;20277;-72
2024/02/01 02:58:53;;;;;;;10.00;5.95;;;5.60;67.70;;;;;;5076049;28;20209;-72
2024/02/01 03:01:21;;;;;;;9.82;7.10;;;5.70;67.00;;;;;;5075872;28;20244;-72
2024/02/01 03:03:48;;;;;;;11.30;6.03;;;5.80;66.50;;;;;;5075868;28;20293;-72
2024/02/01 03:06:15;;;;;;;11.95;7.68;;;5.80;66.90;;;;;;5075370;28;20221;-72
2024/02/01 03:08:43;;;;;;;10.45;6.03;;;5.90;67.00;;;;;;5075822;28;20264;-72
2024/02/01 03:11:11;;;;;;;10.82;6.82;;;6.10;69.10;;;;;;5075706;28;20185;-72
2024/02/01 03:13:40;;;;;;;12.60;7.50;;;6.20;69.20;;;;;;5075656;28;20186;-72
2024/02/01 03:16:16;;;;;;;9.13;6.07;;;6.40;69.20;;;;;;5073951;28;20197;-72
2024/02/01 03:18:44;;;;;;;11.13;6.47;;;6.50;69.10;;;;;;5075225;28;20213;-72
2024/02/01 03:21:11;;;;;;;9.75;6.80;;;6.60;68.80;;;;;;5075483;28;20233;-72
2024/02/01 03:23:39;;;;;;;13.43;6.80;;;6.70;69.30;;;;;;5075335;28;20313;-72
2024/02/01 03:26:06;;;;;;;10.80;6.53;;;6.90;69.20;;;;;;5075299;28;20221;-72
2024/02/01 03:28:33;;;;;;;12.45;6.70;;;7.00;69.00;;;;;;5075293;28;20196;-72
2024/02/01 03:31:03;;;;;;;12.10;6.70;;;7.20;68.40;;;;;;5074937;28;20224;-72
2024/02/01 03:33:38;;;;;;;12.10;7.20;;;7.30;68.10;;;;;;5074952;28;20276;-72
2024/02/01 03:36:06;;;;;;;13.10;7.38;;;7.20;68.20;;;;;;5074900;28;20580;-72
2024/02/01 03:38:33;;;;;;;10.77;6.63;;;7.30;68.10;;;;;;5074766;28;20225;-72
2024/02/01 03:41:00;;;;;;;12.70;6.25;;;7.40;67.00;;;;;;5075094;28;20281;-72
2024/02/01 03:43:28;;;;;;;10.55;5.85;;;7.50;66.20;;;;;;5075141;28;20245;-72
2024/02/01 03:45:55;;;;;;;8.05;5.53;;;7.50;65.40;;;;;;5074946;28;20277;-72
2024/02/01 03:48:23;;;;;;;11.18;7.10;;;7.60;65.30;;;;;;5075028;28;20218;-72
2024/02/01 03:50:51;;;;;;;10.40;6.78;;;7.60;64.90;;;;;;5074865;28;20269;-72
2024/02/01 03:53:18;;;;;;;9.93;5.85;;;7.60;65.10;;;;;;5074453;28;20277;-72
2024/02/01 03:55:48;;;;;;;9.60;6.25;;;7.60;64.60;;;;;;5074759;28;20272;-72
2024/02/01 03:58:16;;;;;;;10.07;5.65;;;7.60;64.00;;;;;;5074854;28;20197;-72
2024/02/01 04:00:44;;;;;;;9.82;5.78;;;7.70;63.50;;;;;;5074757;28;20186;-72
2024/02/01 04:03:14;;;;;;;7.65;5.20;;;7.80;63.70;;;;;;5074256;28;20212;-72
2024/02/01 04:05:43;;;;;;;8.95;5.50;;;7.80;63.60;;;;;;5074278;28;20178;-72
2024/02/01 04:08:12;;;;;;;6.85;5.00;;;8.00;63.20;;;;;;5074273;28;20272;-72
2024/02/01 04:10:39;;;;;;;9.93;5.55;;;7.90;63.10;;;;;;5074508;28;20186;-72
2024/02/01 04:13:08;;;;;;;9.85;7.03;;;7.90;63.30;;;;;;5074189;28;20233;-72
2024/02/01 04:15:36;;;;;;;9.68;5.80;;;7.90;63.50;;;;;;5074418;28;20592;-73
2024/02/01 04:18:04;;;;;;;7.72;5.70;;;8.00;63.90;;;;;;5073814;28;20313;-72
2024/02/01 04:20:31;;;;;;;12.35;6.72;;;7.90;64.00;;;;;;5074086;28;20514;-72
2024/02/01 04:22:59;;;;;;;12.13;7.47;;;7.90;64.70;;;;;;5074273;28;20221;-72
2024/02/01 04:25:27;;;;;;;13.10;7.82;;;8.00;65.10;;;;;;5073848;28;20228;-72
2024/02/01 04:27:55;;;;;;;12.85;7.03;;;8.10;64.80;;;;;;5073928;28;20193;-72
2024/02/01 04:30:23;;;;;;;12.18;5.97;;;8.10;65.20;;;;;;5074270;28;20591;-72
2024/02/01 04:32:51;;;;;;;10.57;6.53;;;8.10;65.00;;;;;;5073742;28;20707;-72
2024/02/01 04:35:18;;;;;;;8.38;5.20;;;8.20;65.50;;;;;;5074044;28;20225;-72
2024/02/01 04:37:45;;;;;;;8.00;4.55;;;8.20;65.50;;;;;;5073968;28;20273;-72
2024/02/01 04:40:14;;;;;;;7.95;4.70;;;8.30;65.70;;;;;;5073673;28;20277;-72
2024/02/01 04:42:47;;;;;;;8.80;4.13;;;8.30;66.20;;;;;;5073602;28;20273;-72
2024/02/01 04:45:14;;;;;;;8.30;3.75;;;8.30;66.90;;;;;;5074065;28;20202;-72
2024/02/01 04:47:41;;;;;;;8.70;4.95;;;8.40;68.00;;;;;;5073949;28;20213;-72
2024/02/01 04:50:08;;;;;;;7.22;4.57;;;8.50;68.70;;;;;;5073553;28;20277;-72
2024/02/01 04:52:35;;;;;;;7.68;4.10;;;8.60;69.00;;;;;;5073532;28;20694;-73
2024/02/01 04:55:03;;;;;;;11.05;4.13;;;8.70;69.40;;;;;;5073815;28;20280;-71
2024/02/01 04:57:32;;;;;;;5.93;3.63;;;8.80;69.50;;;;;;5073864;28;20186;-73
2024/02/01 04:59:59;;;;;;;9.73;3.92;;;8.80;69.60;;;;;;5073715;28;20269;-72
2024/02/01 05:02:26;;;;;;;7.90;4.15;;;9.00;70.00;;;;;;5073941;28;20256;-73
2024/02/01 05:04:53;;;;;;;6.85;4.03;;;9.00;69.70;;;;;;5073280;28;20245;-72
2024/02/01 05:07:20;;;;;;;5.53;4.25;;;9.10;70.10;;;;;;5073286;28;20229;-73
2024/02/01 05:09:47;;;;;;;10.15;4.72;;;9.20;70.50;;;;;;5073643;28;20281;-73
2024/02/01 05:12:14;;;;;;;8.15;4.35;;;9.30;70.90;;;;;;5073736;28;20607;-72
2024/02/01 05:14:42;;;;;;;5.15;4.13;;;9.30;70.90;;;;;;5073594;28;20232;-72
2024/02/01 05:17:09;;;;;;;6.32;4.00;;;9.40;71.10;;;;;;5073585;28;20273;-73
2024/02/01 05:19:36;;;;;;;7.55;4.15;;;9.50;71.10;;;;;;5072984;28;20301;-72
2024/02/01 05:22:07;;;;;;;9.90;5.18;;;9.50;71.10;;;;;;5073532;28;20221;-72
2024/02/01 05:24:34;;;;;;;8.60;4.57;;;9.50;70.90;;;;;;5073582;28;20210;-72
2024/02/01 05:27:07;;;;;;;10.45;3.60;;;9.60;71.80;;;;;;5073434;28;20592;-72
2024/02/01 05:29:35;;;;;;;6.60;4.20;;;9.60;71.00;;;;;;5073167;28;20193;-72
2024/02/01 05:32:06;;;;;;;10.27;4.15;;;9.70;71.00;;;;;;5073110;28;20186;-73
2024/02/01 05:34:33;;;;;;;12.05;3.90;;;9.70;71.00;;;;;;5073653;28;20270;-72
2024/02/01 05:37:01;;;;;;;5.90;3.97;;;9.80;71.10;;;;;;5072999;28;20189;-73
2024/02/01 05:39:28;;;;;;;8.20;4.65;;;9.80;71.20;;;;;;5077218;28;20189;-72
2024/02/01 05:41:56;;;;;;;8.93;3.80;;;9.80;71.30;;;;;;5082775;28;20627;-71
2024/02/01 05:44:24;;;;;;;10.85;5.20;;;9.90;71.60;;;;;;5087672;28;20206;-72
2024/02/01 05:46:53;;;;;;;6.28;3.75;;;9.90;71.80;;;;;;5077298;28;20272;-71
2024/02/01 05:49:22;;;;;;;7.80;4.60;;;9.90;71.90;;;;;;5084267;28;20174;-72
2024/02/01 05:51:50;;;;;;;9.40;4.88;;;9.90;72.10;;;;;;5097508;28;20189;-72
2024/02/01 05:54:17;;;;;;;10.60;4.40;;;9.90;72.80;;;;;;5086071;28;20629;-73
2024/02/01 05:56:45;;;;;;;7.13;4.63;;;10.00;71.80;;;;;;5095986;28;20514;-72
2024/02/01 05:59:13;;;;;;;10.18;5.15;;;10.00;71.90;;;;;;5097499;28;20213;-73
2024/02/01 06:01:41;;;;;;;22.08;6.05;;;10.00;72.60;;;;;;5095491;28;20523;-73
2024/02/01 06:04:08;;;;;;;5.97;3.92;;;10.00;72.80;;;;;;5086173;28;20212;-73
2024/02/01 06:06:37;;;;;;;9.10;5.35;;;10.00;73.10;;;;;;5096847;28;20178;-73
2024/02/01 06:09:06;;;;;;;13.40;5.75;;;10.00;73.20;;;;;;5083179;28;20225;-73
2024/02/01 06:11:32;;;;;;;9.30;5.85;;;10.00;73.20;;;;;;5076759;28;20182;-73
2024/02/01 06:13:59;;;;;;;6.20;4.07;;;10.00;73.40;;;;;;5084407;28;20278;-73
2024/02/01 06:16:26;;;;;;;5.63;4.78;;;10.00;73.30;;;;;;5076227;28;20695;-73
2024/02/01 06:18:53;;;;;;;12.20;5.43;;;10.10;73.30;;;;;;5077799;28;20301;-72
2024/02/01 06:21:20;;;;;;;11.27;4.68;;;10.10;73.50;;;;;;5076156;28;20269;-73
2024/02/01 06:23:48;;;;;;;8.18;5.07;;;10.10;73.30;;;;;;5077788;28;20293;-73
2024/02/01 06:26:20;;;;;;;11.55;5.50;;;10.10;73.10;;;;;;5087044;28;20221;-73
2024/02/01 06:28:47;;;;;;;8.90;5.00;;;10.00;73.20;;;;;;5076549;28;20205;-73
2024/02/01 06:31:14;;;;;;;9.63;4.82;;;10.00;73.30;;;;;;5089677;28;20269;-73
2024/02/01 06:33:43;;;;;;;11.35;4.90;;;10.00;73.30;;;;;;5083905;28;20213;-73
2024/02/01 06:36:13;;;;;;;9.30;4.80;;;10.10;73.60;;;;;;5079473;28;20195;-73
2024/02/01 06:39:08;;;;;;;7.68;4.55;;;10.10;73.50;;;;;;5078785;28;20186;-73
2024/02/01 06:41:49;;;;;;;8.77;5.72;;;10.10;73.90;;;;;;5095883;28;20611;-73
2024/02/01 06:44:24;;;;;;;9.48;5.03;;;10.10;73.90;;;;;;5095494;28;20197;-73
2024/02/01 06:47:11;;;;;;;8.45;4.63;;;10.10;73.90;;;;;;5096252;28;20201;-73
2024/02/01 06:50:00;;;;;;;10.48;4.88;;;10.10;74.00;;;;;;5094626;28;20174;-73
2024/02/01 06:52:39;;;;;;;9.10;5.07;;;10.10;73.90;;;;;;5086584;28;20220;-73
2024/02/01 06:58:13;;;;;;;7.55;4.20;;;10.10;73.70;;;;;;5094368;28;20246;-73
2024/02/01 07:00:51;;;;;;;6.63;4.45;;;10.10;73.80;;;;;;5088094;28;20609;-73
2024/02/01 07:03:50;;;;;;;10.43;5.57;;;10.10;73.60;;;;;;5088522;28;20205;-72
2024/02/01 07:06:35;;;;;;;5.43;4.15;;;10.10;73.40;;;;;;5092434;28;20299;-73
2024/02/01 07:09:27;;;;;;;10.05;4.10;;;10.10;73.20;;;;;;5084098;28;20188;-73
2024/02/01 07:14:41;;;;;;;10.95;4.45;;;10.10;73.00;;;;;;5088611;28;20193;-73
2024/02/01 07:17:27;;;;;;;10.95;4.43;;;10.20;73.00;;;;;;5093260;28;20173;-73
2024/02/01 07:19:56;;;;;;;10.15;5.40;;;10.20;73.70;;;;;;5095052;28;20188;-73
2024/02/01 07:23:00;;;;;;;7.15;4.10;;;10.20;72.70;;;;;;5095567;28;20217;-73
2024/02/01 07:25:48;;;;;;;7.68;4.15;;;10.20;72.60;;;;;;5083203;28;20205;-73
2024/02/01 07:58:39;;;;;;;7.25;3.05;;;10.30;70.90;;;;;;5074582;28;20627;-73
2024/02/01 08:01:14;;;;;;;6.95;4.35;;;10.30;70.90;;;;;;5073887;28;20217;-73
2024/02/01 08:03:59;;;;;;;7.32;3.53;;;10.30;70.90;;;;;;5073969;28;20216;-73
2024/02/01 08:09:13;;;;;;;5.75;3.25;;;10.40;70.90;;;;;;5074650;28;20232;-73
2024/02/01 08:11:44;;;;;;;7.45;4.15;;;10.40;70.60;;;;;;5074643;28;20186;-73
2024/02/01 08:14:11;;;;;;;6.20;3.60;;;10.50;70.60;;;;;;5074161;28;20676;-73
2024/02/01 08:16:39;;;;;;;5.55;3.50;;;10.50;70.50;;;;;;5074621;28;20567;-72
2024/02/01 08:19:08;;;;;;;5.80;4.10;;;10.50;70.30;;;;;;5074412;28;20222;-73
2024/02/01 08:21:37;;;;;;;8.18;5.05;;;10.50;70.60;;;;;;5074195;28;20695;-73
2024/02/01 08:24:06;;;;;;;6.32;4.03;;;10.50;71.00;;;;;;5074375;28;20186;-73
2024/02/01 08:26:37;;;;;;;7.07;4.20;;;10.50;71.40;;;;;;5074401;28;20190;-73
2024/02/01 08:29:06;;;;;;;5.75;4.18;;;10.50;71.70;;;;;;5074448;28;20170;-73
2024/02/01 08:31:36;;;;;;;5.95;3.85;;;10.50;72.20;;;;;;5074062;28;20650;-73
2024/02/01 08:34:04;;;;;;;5.35;4.00;;;10.50;72.30;;;;;;5074255;28;20190;-73
2024/02/01 08:36:32;;;;;;;7.95;4.85;;;10.50;72.80;;;;;;5073857;28;20217;-73
2024/02/01 08:39:00;;;;;;;7.50;4.50;;;10.50;73.80;;;;;;5074178;28;20182;-73
2024/02/01 08:41:27;;;;;;;6.05;4.00;;;10.50;73.80;;;;;;5073790;28;20694;-73
2024/02/01 08:43:55;;;;;;;9.85;5.63;;;10.50;74.40;;;;;;5073716;28;20644;-73
2024/02/01 08:46:23;;;;;;;8.05;4.85;;;10.40;74.80;;;;;;5074253;28;20182;-73
2024/02/01 08:48:50;;;;;;;8.25;5.10;;;10.40;75.40;;;;;;5073982;28;20755;-73
2024/02/01 08:51:18;;;;;;;6.85;4.75;;;10.40;75.80;;;;;;5073653;28;20277;-73
2024/02/01 08:53:52;;;;;;;8.50;4.72;;;10.40;76.20;;;;;;5073882;28;20198;-73
2024/02/01 08:56:20;;;;;;;11.95;5.43;;;10.40;76.60;;;;;;5073541;28;20232;-73
2024/02/01 08:58:49;;;;;;;9.32;5.20;;;10.40;77.00;;;;;;5073904;28;20189;-73
2024/02/01 09:01:22;;;;;;;10.52;5.50;;;10.40;77.10;;;;;;5074022;28;20602;-73
2024/02/01 09:03:50;;;;;;;11.02;5.25;;;10.40;77.10;;;;;;5073751;28;20174;-73
2024/02/01 09:06:17;;;;;;;10.50;5.65;;;10.40;77.10;;;;;;5073447;28;20304;-73
2024/02/01 09:08:44;;;;;;;7.15;4.60;;;10.40;77.00;;;;;;5073802;28;20217;-73
2024/02/01 09:11:15;;;;;;;8.63;5.05;;;10.40;76.80;;;;;;5073410;28;20188;-73
2024/02/01 09:13:44;;;;;;;9.00;4.85;;;10.40;76.60;;;;;;5074137;28;20169;-73
2024/02/01 09:16:12;;;;;;;6.55;4.78;;;10.40;76.50;;;;;;5073279;28;20232;-73
2024/02/01 09:18:39;;;;;;;7.95;6.00;;;10.30;76.80;;;;;;5073436;28;20214;-73
2024/02/01 09:21:06;;;;;;;7.30;4.47;;;10.30;76.70;;;;;;5073197;28;20714;-73
2024/02/01 09:23:33;;;;;;;9.25;4.88;;;10.30;77.00;;;;;;5073547;28;20269;-73
2024/02/01 09:26:00;;;;;;;9.90;5.05;;;10.40;77.00;;;;;;5073500;28;20627;-73
2024/02/01 09:28:29;;;;;;;7.60;5.10;;;10.30;77.20;;;;;;5072995;28;20643;-73
2024/02/01 09:30:56;;;;;;;8.65;5.38;;;10.30;77.30;;;;;;5073383;28;20213;-73
2024/02/01 09:33:27;;;;;;;7.57;4.93;;;10.30;77.70;;;;;;5073380;28;20217;-73
2024/02/01 09:35:56;;;;;;;6.75;4.00;;;10.30;78.20;;;;;;5073184;28;20231;-73
2024/02/01 09:38:23;;;;;;;9.98;5.10;;;10.30;78.30;;;;;;5073775;28;20195;-73
2024/02/01 09:40:50;;;;;;;12.32;5.00;;;10.30;78.30;;;;;;5073426;28;20186;-73
2024/02/01 09:43:20;;;;;;;6.72;5.47;;;10.30;78.80;;;;;;5073309;28;20282;-73
2024/02/01 09:45:49;;;;;;;6.97;4.38;;;10.30;79.10;;;;;;5073019;28;20201;-73
2024/02/01 09:48:17;;;;;;;9.48;4.70;;;10.30;79.00;;;;;;5072543;28;20239;-73
2024/02/01 09:50:50;;;;;;;6.05;4.47;;;10.30;79.30;;;;;;5073075;28;20182;-73
2024/02/01 09:53:21;;;;;;;5.60;4.35;;;10.30;79.30;;;;;;5072747;28;20175;-73
2024/02/01 09:55:49;;;;;;;6.13;4.55;;;10.30;79.40;;;;;;5072749;28;20269;-73
2024/02/01 09:58:16;;;;;;;8.02;4.65;;;10.40;79.50;;;;;;5072675;28;20197;-73
2024/02/01 10:00:44;;;;;;;9.13;4.30;;;10.40;79.40;;;;;;5073187;28;20217;-73
2024/02/01 10:03:13;;;;;;;6.88;4.10;;;10.40;79.40;;;;;;5072590;28;20281;-73
2024/02/01 10:05:41;;;;;;;8.68;6.80;;;10.40;79.50;;;;;;5072912;28;20236;-73
2024/02/01 10:08:13;;;;;;;6.40;3.83;;;10.40;79.80;;;;;;5072651;28;20291;-73
2024/02/01 10:10:41;;;;;;;7.13;3.97;;;10.40;80.10;;;;;;5072630;28;20225;-73
2024/02/01 10:13:13;;;;;;;8.32;4.20;;;10.40;80.10;;;;;;5072542;28;20186;-73
2024/02/01 10:15:43;;;;;;;6.68;3.75;;;10.40;80.40;;;;;;5073057;28;20193;-74
2024/02/01 10:18:16;;;;;;;4.70;3.53;;;10.40;80.10;;;;;;5072679;28;20228;-74
2024/02/01 10:20:49;;;;;;;5.10;3.63;;;10.40;79.90;;;;;;5072504;28;20177;-73
2024/02/01 10:23:16;;;;;;;4.60;3.20;;;10.40;79.50;;;;;;5072846;28;20190;-73
2024/02/01 10:25:46;;;;;;;5.18;3.85;;;10.40;79.50;;;;;;5074991;28;20209;-74
2024/02/01 10:28:14;;;;;;;4.38;3.05;;;10.40;79.20;;;;;;5076457;28;20190;-74
2024/02/01 10:30:43;;;;;;;6.57;3.42;;;10.40;79.40;;;;;;5076083;28;20190;-73
2024/02/01 10:33:11;;;;;;;4.90;3.30;;;10.40;79.50;;;;;;5076383;28;20191;-73
2024/02/01 10:35:40;;;;;;;7.50;3.90;;;10.50;79.60;;;;;;5076339;28;20243;-73
2024/02/01 10:38:14;;;;;;;5.30;3.08;;;10.50;79.60;;;;;;5075918;28;20721;-73
2024/02/01 10:40:49;;;;;;;7.45;4.10;;;10.50;79.70;;;;;;5076470;28;20174;-73
2024/02/01 10:43:19;;;;;;;6.55;3.35;;;10.50;79.80;;;;;;5076496;28;20193;-74
2024/02/01 10:45:51;;;;;;;6.05;3.90;;;10.50;79.50;;;;;;5076146;28;20209;-73
2024/02/01 10:48:22;;;;;;;5.75;3.72;;;10.50;79.80;;;;;;5076084;28;20223;-73
2024/02/01 10:50:54;;;;;;;8.85;3.85;;;10.50;80.10;;;;;;5075886;28;20685;-74
2024/02/01 10:53:21;;;;;;;5.57;3.28;;;10.50;80.50;;;;;;5075711;28;20214;-74
2024/02/01 10:55:49;;;;;;;5.88;3.55;;;10.50;80.80;;;;;;5075962;28;20255;-74
2024/02/01 10:58:19;;;;;;;6.03;3.30;;;10.50;80.10;;;;;;5075869;28;20248;-73
2024/02/01 11:00:47;;;;;;;4.47;3.50;;;10.50;80.10;;;;;;5075612;28;20232;-74
2024/02/01 11:03:15;;;;;;;5.45;3.30;;;10.50;79.50;;;;;;5075588;28;20685;-74
2024/02/01 11:05:44;;;;;;;3.92;2.40;;;10.40;79.60;;;;;;5075797;28;20249;-74
2024/02/01 11:08:18;;;;;;;3.92;2.33;;;10.50;79.60;;;;;;5075423;28;20690;-74
2024/02/01 11:11:15;;;;;;;4.65;2.00;;;10.40;77.70;;;;;;5076115;28;20273;-74
2024/02/01 11:13:43;;;;;;;5.43;2.22;;;10.30;77.00;;;;;;5075629;28;20197;-74
2024/02/01 11:16:10;;;;;;;6.75;1.95;;;10.30;76.10;;;;;;5075553;28;20200;-74
2024/02/01 11:18:38;;;;;;;2.75;1.80;;;10.20;76.20;;;;;;5075202;28;20248;-72
2024/02/01 11:21:05;;;;;;;3.88;2.15;;;10.10;76.50;;;;;;5075211;28;20625;-74
2024/02/01 11:23:39;;;;;;;4.60;2.30;;;10.10;76.30;;;;;;5075461;28;20186;-74
2024/02/01 11:26:15;;;;;;;3.20;2.00;;;10.00;77.30;;;;;;5075514;28;20233;-74
2024/02/01 11:28:47;;;;;;;2.83;1.70;;;10.00;77.50;;;;;;5075246;28;20678;-74
2024/02/01 11:31:15;;;;;;;4.07;2.05;;;10.00;77.30;;;;;;5075526;28;20174;-73
2024/02/01 11:33:43;;;;;;;3.95;2.30;;;9.90;78.00;;;;;;5075039;28;20208;-74
2024/02/01 11:36:10;;;;;;;4.75;3.05;;;9.90;78.70;;;;;;5074476;28;20484;-74
2024/02/01 11:38:41;;;;;;;5.13;2.70;;;9.80;78.40;;;;;;5075129;28;20182;-74
2024/02/01 11:41:08;;;;;;;5.03;2.53;;;9.80;78.50;;;;;;5075215;28;20182;-74
2024/02/01 11:43:38;;;;;;;3.72;1.85;;;9.80;79.00;;;;;;5074807;28;20190;-74
2024/02/01 11:46:06;;;;;;;6.65;3.10;;;9.80;79.10;;;;;;5075028;28;20273;-74
2024/02/01 11:48:34;;;;;;;3.60;2.00;;;9.70;79.60;;;;;;5075024;28;20247;-74
2024/02/01 11:51:03;;;;;;;3.72;2.55;;;9.70;79.90;;;;;;5074681;28;20624;-74
2024/02/01 11:53:29;;;;;;;3.53;2.10;;;9.70;79.90;;;;;;5074460;28;20634;-74
2024/02/01 11:55:58;;;;;;;3.20;2.13;;;9.70;80.00;;;;;;5074874;28;20232;-74
2024/02/01 11:58:31;;;;;;;3.95;2.20;;;9.70;80.30;;;;;;5072298;28;20191;-74
2024/02/01 12:00:58;;;;;;;6.65;2.20;;;9.60;80.40;;;;;;5073875;28;20177;-75
2024/02/01 12:03:31;;;;;;;3.60;2.00;;;9.60;80.80;;;;;;5074421;28;20331;-74
2024/02/01 12:06:01;;;;;;;3.35;2.08;;;9.60;81.20;;;;;;5074623;28;20199;-74
2024/02/01 12:08:28;;;;;;;3.20;1.92;;;9.60;80.60;;;;;;5074516;28;20193;-75
2024/02/01 12:10:59;;;;;;;3.20;1.73;;;9.60;80.60;;;;;;5074394;28;20220;-75
2024/02/01 12:13:28;;;;;;;3.30;1.98;;;9.70;80.60;;;;;;5074518;28;20210;-74
2024/02/01 12:15:58;;;;;;;3.00;1.50;;;9.70;80.40;;;;;;5074120;28;20259;-74
2024/02/01 12:18:25;;;;;;;3.80;1.60;;;9.60;80.30;;;;;;5073680;28;20671;-74
2024/02/01 12:20:52;;;;;;;4.55;1.80;;;9.60;80.30;;;;;;5074326;28;20250;-75
2024/02/01 12:23:19;;;;;;;2.67;1.50;;;9.60;80.10;;;;;;5074307;28;20235;-74
2024/02/01 12:25:47;;;;;;;2.95;1.75;;;9.60;80.60;;;;;;5074124;28;20264;-74
2024/02/01 12:28:14;;;;;;;4.95;2.75;;;9.50;80.30;;;;;;5073892;28;20281;-74
2024/02/01 12:30:44;;;;;;;3.40;1.77;;;9.50;80.30;;;;;;5074244;28;20241;-74
2024/02/01 12:33:13;;;;;;;2.35;1.20;;;9.50;80.90;;;;;;5073831;28;20636;-74
2024/02/01 12:35:43;;;;;;;2.72;1.25;;;9.50;80.60;;;;;;5073764;28;20553;-74
2024/02/01 12:38:11;;;;;;;2.50;1.25;;;9.50;80.10;;;;;;5074344;28;20265;-74
2024/02/01 12:40:38;;;;;;;2.85;1.50;;;9.50;79.90;;;;;;5073889;28;20584;-73
2024/02/01 12:43:05;;;;;;;5.82;1.27;;;9.50;80.10;;;;;;5073674;28;20196;-73
2024/02/01 12:45:33;;;;;;;4.35;1.95;;;9.50;80.00;;;;;;5073804;28;20329;-73
2024/02/01 12:48:02;;;;;;;3.58;2.03;;;9.50;80.20;;;;;;5073557;28;20217;-74
2024/02/01 12:50:36;;;;;;;3.15;1.48;;;9.50;81.10;;;;;;5073733;28;20269;-74
2024/02/01 12:53:03;;;;;;;2.92;1.52;;;9.50;81.60;;;;;;5073603;28;20256;-74
2024/02/01 12:55:30;;;;;;;2.63;1.70;;;9.50;81.80;;;;;;5073354;28;20223;-74
2024/02/01 12:58:00;;;;;;;2.83;1.58;;;9.60;82.20;;;;;;5073761;28;20182;-74
2024/02/01 13:00:27;;;;;;;2.70;1.55;;;9.60;81.70;;;;;;5073736;28;20272;-73
2024/02/01 13:02:56;;;;;;;2.92;1.33;;;9.60;82.20;;;;;;5073881;28;20208;-74
2024/02/01 13:05:25;;;;;;;4.72;1.77;;;9.60;82.00;;;;;;5073543;28;20190;-73
2024/02/01 13:07:52;;;;;;;3.50;1.60;;;9.60;82.30;;;;;;5073572;28;20224;-74
2024/02/01 13:10:19;;;;;;;2.78;1.65;;;9.60;82.10;;;;;;5073579;28;20267;-73
2024/02/01 13:12:55;;;;;;;2.53;1.42;;;9.60;82.10;;;;;;5073557;28;20243;-74
2024/02/01 13:15:24;;;;;;;2.50;1.60;;;9.60;82.20;;;;;;5073616;28;20177;-74
2024/02/01 13:17:50;;;;;;;2.30;1.20;;;9.60;82.20;;;;;;5073040;28;20236;-73
2024/02/01 13:20:19;;;;;;;2.30;1.13;;;9.60;82.20;;;;;;5072628;28;20267;-74
2024/02/01 13:22:48;;;;;;;3.47;1.50;;;9.60;82.50;;;;;;5072302;28;20651;-74
2024/02/01 13:25:18;;;;;;;3.47;1.67;;;9.60;82.20;;;;;;5072598;28;20221;-73
2024/02/01 13:27:46;;;;;;;3.03;1.55;;;9.60;82.10;;;;;;5072212;28;20205;-73
2024/02/01 13:30:14;;;;;;;4.63;1.80;;;9.60;82.20;;;;;;5072188;28;20186;-74
2024/02/01 13:32:42;;;;;;;2.53;1.40;;;9.60;82.50;;;;;;5072474;28;20190;-74
2024/02/01 13:35:09;;;;;;;2.55;1.20;;;9.50;83.00;;;;;;5072070;28;20217;-74
2024/02/01 13:37:36;;;;;;;2.80;1.52;;;9.50;83.50;;;;;;5072431;28;20280;-74
2024/02/01 13:40:05;;;;;;;3.47;1.80;;;9.60;83.00;;;;;;5072362;28;20272;-74